createdAt,value
2023-04-15T00:01:05.923Z,3.55
2023-04-15T00:02:39.109Z,3.05
2023-04-15T00:04:11.094Z,3.10
2023-04-15T00:05:43.268Z,3.15
2023-04-15T00:07:14.973Z,2.80
2023-04-15T00:08:46.771Z,2.92
2023-04-15T00:10:18.691Z,2.90
2023-04-15T00:11:50.616Z,2.72
2023-04-15T00:13:22.256Z,3.03
2023-04-15T00:14:54.458Z,2.90
2023-04-15T00:16:26.714Z,2.75
2023-04-15T00:17:59.804Z,2.50
2023-04-15T00:19:31.522Z,2.58
2023-04-15T00:21:03.354Z,2.85
2023-04-15T00:22:35.024Z,2.80
2023-04-15T00:24:06.749Z,2.70
2023-04-15T00:25:38.610Z,2.75
2023-04-15T00:27:11.434Z,2.83
2023-04-15T00:28:43.603Z,2.97
2023-04-15T00:30:15.265Z,2.70
2023-04-15T00:31:46.894Z,2.83
2023-04-15T00:33:19.908Z,2.70
2023-04-15T00:34:51.753Z,3.03
2023-04-15T00:36:23.462Z,2.80
2023-04-15T00:37:55.104Z,2.63
2023-04-15T00:39:28.133Z,3.00
2023-04-15T00:40:59.791Z,2.70
2023-04-15T00:42:31.419Z,2.95
2023-04-15T00:44:03.036Z,2.60
2023-04-15T00:45:34.703Z,3.08
2023-04-15T00:47:06.429Z,2.47
2023-04-15T00:48:39.437Z,2.80
2023-04-15T00:50:11.465Z,2.50
2023-04-15T00:51:43.086Z,2.38
2023-04-15T00:53:14.709Z,2.70
2023-04-15T00:54:46.437Z,2.50
2023-04-15T00:56:18.151Z,2.80
2023-04-15T00:57:49.764Z,2.60
2023-04-15T00:59:21.410Z,2.53
2023-04-15T01:00:54.480Z,2.75
2023-04-15T01:02:26.346Z,2.63
2023-04-15T01:03:59.431Z,2.63
2023-04-15T01:05:31.343Z,2.80
2023-04-15T01:07:02.995Z,2.30
2023-04-15T01:08:35.526Z,2.83
2023-04-15T01:10:08.397Z,3.05
2023-04-15T01:11:40.279Z,2.80
2023-04-15T01:13:12.248Z,3.15
2023-04-15T01:14:43.843Z,2.70
2023-04-15T01:16:15.633Z,2.90
2023-04-15T01:17:47.293Z,2.38
2023-04-15T01:19:20.291Z,2.78
2023-04-15T01:20:52.134Z,2.60
2023-04-15T01:22:23.908Z,2.70
2023-04-15T01:23:56.893Z,2.70
2023-04-15T01:25:32.938Z,2.83
2023-04-15T01:27:05.332Z,2.60
2023-04-15T01:28:37.562Z,2.67
2023-04-15T01:30:10.621Z,2.72
2023-04-15T01:31:49.724Z,2.95
2023-04-15T01:33:21.481Z,2.85
2023-04-15T01:34:53.100Z,2.63
2023-04-15T01:36:24.776Z,3.40
2023-04-15T01:37:56.373Z,2.90
2023-04-15T01:39:28.121Z,2.90
2023-04-15T01:41:01.496Z,2.95
2023-04-15T01:42:33.708Z,3.13
2023-04-15T01:44:05.902Z,3.10
2023-04-15T01:45:37.595Z,2.90
2023-04-15T01:47:09.229Z,2.95
2023-04-15T01:48:41.179Z,2.75
2023-04-15T01:50:13.103Z,2.92
2023-04-15T01:51:44.748Z,2.67
2023-04-15T01:53:16.852Z,3.00
2023-04-15T01:54:48.446Z,2.95
2023-04-15T01:56:21.437Z,2.72
2023-04-15T01:57:53.115Z,2.80
2023-04-15T01:59:24.949Z,2.63
2023-04-15T02:00:57.175Z,2.67
2023-04-15T02:02:29.331Z,2.53
2023-04-15T02:04:01.183Z,2.53
2023-04-15T02:05:33.770Z,2.70
2023-04-15T02:07:05.882Z,2.90
2023-04-15T02:08:37.499Z,2.65
2023-04-15T02:10:10.329Z,2.65
2023-04-15T02:11:43.476Z,2.70
2023-04-15T02:13:15.195Z,2.45
2023-04-15T02:14:47.199Z,2.50
2023-04-15T02:16:19.259Z,2.45
2023-04-15T02:17:52.732Z,2.47
2023-04-15T02:19:25.261Z,2.60
2023-04-15T02:20:58.455Z,2.30
2023-04-15T02:22:30.346Z,2.70
2023-04-15T02:24:02.536Z,2.65
2023-04-15T02:25:34.309Z,2.55
2023-04-15T02:27:07.372Z,2.50
2023-04-15T02:28:39.005Z,2.53
2023-04-15T02:30:11.014Z,2.60
2023-04-15T02:31:43.747Z,2.53
2023-04-15T02:33:15.408Z,2.40
2023-04-15T02:34:46.992Z,2.42
2023-04-15T02:36:18.625Z,2.72
2023-04-15T02:37:50.266Z,2.50
2023-04-15T02:39:21.885Z,2.53
2023-04-15T02:40:53.527Z,2.30
2023-04-15T02:42:28.728Z,2.70
2023-04-15T02:44:00.353Z,2.30
2023-04-15T02:45:32.060Z,2.60
2023-04-15T02:47:05.035Z,2.20
2023-04-15T02:48:37.121Z,2.30
2023-04-15T02:50:09.928Z,2.20
2023-04-15T02:51:41.991Z,2.20
2023-04-15T02:53:14.631Z,2.47
2023-04-15T02:54:46.440Z,2.30
2023-04-15T02:56:19.435Z,3.08
2023-04-15T02:57:52.467Z,2.40
2023-04-15T02:59:24.105Z,2.45
2023-04-15T03:00:55.733Z,2.40
2023-04-15T03:02:27.591Z,2.45
2023-04-15T03:03:59.452Z,2.10
2023-04-15T03:05:31.491Z,2.25
2023-04-15T03:07:03.104Z,2.40
2023-04-15T03:08:34.733Z,2.33
2023-04-15T03:10:07.266Z,2.20
2023-04-15T03:11:40.736Z,2.33
2023-04-15T03:13:13.745Z,2.50
2023-04-15T03:14:45.526Z,2.17
2023-04-15T03:16:17.735Z,2.30
2023-04-15T03:17:49.773Z,2.30
2023-04-15T03:19:21.549Z,2.20
2023-04-15T03:20:53.229Z,2.10
2023-04-15T03:22:26.492Z,2.30
2023-04-15T03:23:58.129Z,2.40
2023-04-15T03:25:29.806Z,2.33
2023-04-15T03:27:02.007Z,2.05
2023-04-15T03:28:35.044Z,2.20
2023-04-15T03:30:08.934Z,2.35
2023-04-15T03:31:40.622Z,2.30
2023-04-15T03:33:12.270Z,2.70
2023-04-15T03:34:43.889Z,2.42
2023-04-15T03:36:15.958Z,2.50
2023-04-15T03:37:49.197Z,2.40
2023-04-15T03:39:20.926Z,2.30
2023-04-15T03:40:52.626Z,2.38
2023-04-15T03:42:24.258Z,2.22
2023-04-15T03:43:57.228Z,2.45
2023-04-15T03:45:28.814Z,2.00
2023-04-15T03:47:00.733Z,2.30
2023-04-15T03:48:32.376Z,2.22
2023-04-15T03:50:04.469Z,2.50
2023-04-15T03:51:36.220Z,2.20
2023-04-15T03:53:07.847Z,2.20
2023-04-15T03:54:39.433Z,2.50
2023-04-15T03:56:11.232Z,2.30
2023-04-15T03:57:42.830Z,2.00
2023-04-15T03:59:16.064Z,2.20
2023-04-15T04:00:47.691Z,2.20
2023-04-15T04:02:19.479Z,2.47
2023-04-15T04:03:51.637Z,2.20
2023-04-15T04:05:23.271Z,2.10
2023-04-15T04:06:54.885Z,2.20
2023-04-15T04:08:27.522Z,2.20
2023-04-15T04:09:59.166Z,2.20
2023-04-15T04:11:31.715Z,2.20
2023-04-15T04:13:03.363Z,2.10
2023-04-15T04:14:36.604Z,2.40
2023-04-15T04:16:08.334Z,2.25
2023-04-15T04:17:40.121Z,2.38
2023-04-15T04:19:12.251Z,2.40
2023-04-15T04:20:43.992Z,2.35
2023-04-15T04:22:15.727Z,2.08
2023-04-15T04:23:47.396Z,2.47
2023-04-15T04:25:18.978Z,2.58
2023-04-15T04:26:50.663Z,2.42
2023-04-15T04:28:22.336Z,2.33
2023-04-15T04:29:55.568Z,2.33
2023-04-15T04:31:27.343Z,2.20
2023-04-15T04:32:59.065Z,2.45
2023-04-15T04:34:31.114Z,2.40
2023-04-15T04:36:02.879Z,2.45
2023-04-15T04:37:34.487Z,2.28
2023-04-15T04:39:06.103Z,2.30
2023-04-15T04:40:37.698Z,2.10
2023-04-15T04:42:09.319Z,2.38
2023-04-15T04:43:41.159Z,2.35
2023-04-15T04:45:14.167Z,2.50
2023-04-15T04:46:45.849Z,2.30
2023-04-15T04:48:17.608Z,2.58
2023-04-15T04:49:49.200Z,2.30
2023-04-15T04:51:20.901Z,2.40
2023-04-15T04:52:52.591Z,2.55
2023-04-15T04:54:24.327Z,2.55
2023-04-15T04:55:55.907Z,2.85
2023-04-15T04:57:27.537Z,2.88
2023-04-15T04:58:59.253Z,2.50
2023-04-15T05:00:32.508Z,2.80
2023-04-15T05:02:04.206Z,2.72
2023-04-15T05:03:36.054Z,2.90
2023-04-15T05:05:08.662Z,2.83
2023-04-15T05:06:40.352Z,2.85
2023-04-15T05:08:12.028Z,2.92
2023-04-15T05:09:43.652Z,2.72
2023-04-15T05:11:15.477Z,2.90
2023-04-15T05:12:47.104Z,2.90
2023-04-15T05:14:18.689Z,2.40
2023-04-15T05:15:51.650Z,2.88
2023-04-15T05:17:23.422Z,3.00
2023-04-15T05:18:55.098Z,2.83
2023-04-15T05:20:26.703Z,2.72
2023-04-15T05:21:58.320Z,2.75
2023-04-15T05:23:29.915Z,2.67
2023-04-15T05:25:01.743Z,2.70
2023-04-15T05:26:33.365Z,2.70
2023-04-15T05:28:05.469Z,2.72
2023-04-15T05:29:37.139Z,2.58
2023-04-15T05:31:10.219Z,2.70
2023-04-15T05:32:41.984Z,2.80
2023-04-15T05:34:15.791Z,2.67
2023-04-15T05:35:47.503Z,2.40
2023-04-15T05:37:22.364Z,2.85
2023-04-15T05:38:54.227Z,2.78
2023-04-15T05:40:25.866Z,2.47
2023-04-15T05:41:57.665Z,3.00
2023-04-15T05:43:29.654Z,3.03
2023-04-15T05:45:01.769Z,3.30
2023-04-15T05:46:35.161Z,3.15
2023-04-15T05:48:07.211Z,3.40
2023-04-15T05:49:39.016Z,3.70
2023-04-15T05:51:11.056Z,3.00
2023-04-15T05:52:42.703Z,2.88
2023-04-15T05:54:14.319Z,2.95
2023-04-15T05:55:45.976Z,3.22
2023-04-15T05:57:17.623Z,2.60
2023-04-15T05:58:49.894Z,2.53
2023-04-15T06:00:22.578Z,2.47
2023-04-15T06:01:55.584Z,2.60
2023-04-15T06:03:27.246Z,2.50
2023-04-15T06:04:59.340Z,2.47
2023-04-15T06:06:32.464Z,2.13
2023-04-15T06:08:04.660Z,2.20
2023-04-15T06:09:36.241Z,2.40
2023-04-15T06:11:07.867Z,2.22
2023-04-15T06:12:39.478Z,2.30
2023-04-15T06:14:11.252Z,2.50
2023-04-15T06:15:43.188Z,2.50
2023-04-15T06:17:18.402Z,2.38
2023-04-15T06:18:50.320Z,2.10
2023-04-15T06:20:21.949Z,2.60
2023-04-15T06:21:53.561Z,2.80
2023-04-15T06:23:26.949Z,2.50
2023-04-15T06:24:59.658Z,2.70
2023-04-15T06:26:31.291Z,2.40
2023-04-15T06:28:03.013Z,2.70
2023-04-15T06:29:34.601Z,2.45
2023-04-15T06:31:06.421Z,2.70
2023-04-15T06:32:39.594Z,2.65
2023-04-15T06:34:11.427Z,2.78
2023-04-15T06:35:43.112Z,2.60
2023-04-15T06:37:16.360Z,3.05
2023-04-15T06:38:48.068Z,3.10
2023-04-15T06:40:19.739Z,2.90
2023-04-15T06:41:51.530Z,2.80
2023-04-15T06:43:23.180Z,2.72
2023-04-15T06:44:54.860Z,2.45
2023-04-15T06:46:29.585Z,2.80
2023-04-15T06:48:04.498Z,2.40
2023-04-15T06:49:36.207Z,2.75
2023-04-15T06:51:08.008Z,2.50
2023-04-15T06:52:39.712Z,2.70
2023-04-15T06:54:11.515Z,2.60
2023-04-15T06:55:43.169Z,2.53
2023-04-15T06:57:14.800Z,2.70
2023-04-15T06:58:46.451Z,3.00
2023-04-15T07:00:19.003Z,2.80
2023-04-15T07:01:50.654Z,2.78
2023-04-15T07:03:23.649Z,2.90
2023-04-15T07:04:55.587Z,2.85
2023-04-15T07:06:27.668Z,2.75
2023-04-15T07:07:59.310Z,2.83
2023-04-15T07:09:31.239Z,2.53
2023-04-15T07:11:02.885Z,3.20
2023-04-15T07:12:37.982Z,3.08
2023-04-15T07:14:09.749Z,3.13
2023-04-15T07:15:41.384Z,3.00
2023-04-15T07:17:13.345Z,3.38
2023-04-15T07:18:46.793Z,3.17
2023-04-15T07:20:18.882Z,2.90
2023-04-15T07:21:50.531Z,2.92
2023-04-15T07:23:22.498Z,3.42
2023-04-15T07:24:54.087Z,2.80
2023-04-15T07:26:25.754Z,2.83
2023-04-15T07:27:57.406Z,2.97
2023-04-15T07:29:29.089Z,3.00
2023-04-15T07:31:00.828Z,2.95
2023-04-15T07:32:32.524Z,3.00
2023-04-15T07:34:06.898Z,3.30
2023-04-15T07:35:38.587Z,3.40
2023-04-15T07:37:10.219Z,3.25
2023-04-15T07:38:42.558Z,3.30
2023-04-15T07:40:16.066Z,3.03
2023-04-15T07:41:48.811Z,3.38
2023-04-15T07:43:21.331Z,3.33
2023-04-15T07:44:52.969Z,3.22
2023-04-15T07:46:24.835Z,3.40
2023-04-15T07:47:56.831Z,3.35
2023-04-15T07:49:30.104Z,3.70
2023-04-15T07:51:02.366Z,3.78
2023-04-15T07:52:39.090Z,3.70
2023-04-15T07:54:10.722Z,3.70
2023-04-15T07:55:42.411Z,3.28
2023-04-15T07:57:14.052Z,3.72
2023-04-15T07:58:45.836Z,3.50
2023-04-15T08:00:18.280Z,3.92
2023-04-15T08:01:50.303Z,4.07
2023-04-15T08:03:22.774Z,3.60
2023-04-15T08:04:56.006Z,3.78
2023-04-15T08:06:27.733Z,3.78
2023-04-15T08:07:59.657Z,4.00
2023-04-15T08:09:31.689Z,3.92
2023-04-15T08:11:07.820Z,3.58
2023-04-15T08:12:39.565Z,3.80
2023-04-15T08:14:11.202Z,3.78
2023-04-15T08:15:43.275Z,3.97
2023-04-15T08:17:14.932Z,4.70
2023-04-15T08:18:46.737Z,5.50
2023-04-15T08:20:19.838Z,4.03
2023-04-15T08:21:51.999Z,4.65
2023-04-15T08:23:23.688Z,4.45
2023-04-15T08:24:56.034Z,3.85
2023-04-15T08:26:27.666Z,4.00
2023-04-15T08:27:59.331Z,3.80
2023-04-15T08:29:31.064Z,3.97
2023-04-15T08:31:02.814Z,3.55
2023-04-15T08:32:34.486Z,3.38
2023-04-15T08:34:06.149Z,3.40
2023-04-15T08:35:39.175Z,3.30
2023-04-15T08:37:11.549Z,3.50
2023-04-15T08:38:44.711Z,3.35
2023-04-15T08:40:17.044Z,3.65
2023-04-15T08:41:52.119Z,3.50
2023-04-15T08:43:26.968Z,3.70
2023-04-15T08:44:58.823Z,2.90
2023-04-15T08:46:31.669Z,3.50
2023-04-15T08:48:03.634Z,3.38
2023-04-15T08:49:36.241Z,3.17
2023-04-15T08:51:09.745Z,3.28
2023-04-15T08:52:41.384Z,3.50
2023-04-15T08:54:13.145Z,3.40
2023-04-15T08:55:48.199Z,3.17
2023-04-15T08:57:20.231Z,3.10
2023-04-15T08:58:52.231Z,3.13
2023-04-15T09:00:24.491Z,3.47
2023-04-15T09:01:56.862Z,3.08
2023-04-15T09:03:28.646Z,2.97
2023-04-15T09:05:00.977Z,3.50
2023-04-15T09:06:34.197Z,3.45
2023-04-15T09:08:06.668Z,3.50
2023-04-15T09:09:40.295Z,3.42
2023-04-15T09:11:12.320Z,3.40
2023-04-15T09:12:43.935Z,3.40
2023-04-15T09:14:16.672Z,3.63
2023-04-15T09:15:48.855Z,3.40
2023-04-15T09:17:21.744Z,3.22
2023-04-15T09:18:53.808Z,3.10
2023-04-15T09:20:25.539Z,3.40
2023-04-15T09:21:59.845Z,3.50
2023-04-15T09:23:32.203Z,3.47
2023-04-15T09:25:04.575Z,3.20
2023-04-15T09:26:36.975Z,3.65
2023-04-15T09:28:08.909Z,3.20
2023-04-15T09:29:42.142Z,3.30
2023-04-15T09:31:13.917Z,3.30
2023-04-15T09:32:49.853Z,3.38
2023-04-15T09:34:22.039Z,3.47
2023-04-15T09:35:58.543Z,3.58
2023-04-15T09:37:36.979Z,3.05
2023-04-15T09:39:08.998Z,3.10
2023-04-15T09:40:41.872Z,3.17
2023-04-15T09:42:14.189Z,3.20
2023-04-15T09:43:45.852Z,3.28
2023-04-15T09:45:17.530Z,3.42
2023-04-15T09:46:49.411Z,3.50
2023-04-15T09:48:22.087Z,3.60
2023-04-15T09:49:56.540Z,3.28
2023-04-15T09:51:34.726Z,3.33
2023-04-15T09:53:09.424Z,3.60
2023-04-15T09:54:41.620Z,3.50
2023-04-15T09:56:13.589Z,3.70
2023-04-15T09:57:47.040Z,3.65
2023-04-15T09:59:20.167Z,3.90
2023-04-15T10:00:53.198Z,3.75
2023-04-15T10:02:24.929Z,4.00
2023-04-15T10:03:57.060Z,3.67
2023-04-15T10:05:29.839Z,3.47
2023-04-15T10:07:05.175Z,3.28
2023-04-15T10:08:38.795Z,3.20
2023-04-15T10:10:11.372Z,3.45
2023-04-15T10:11:44.082Z,3.08
2023-04-15T10:13:18.022Z,3.20
2023-04-15T10:14:53.099Z,2.85
2023-04-15T10:16:27.646Z,3.42
2023-04-15T10:17:59.468Z,3.15
2023-04-15T10:19:31.848Z,2.83
2023-04-15T10:21:03.693Z,2.95
2023-04-15T10:22:35.581Z,3.40
2023-04-15T10:24:08.628Z,2.95
2023-04-15T10:25:40.268Z,2.88
2023-04-15T10:27:12.130Z,3.35
2023-04-15T10:28:43.813Z,3.25
2023-04-15T10:30:15.672Z,3.50
2023-04-15T10:31:47.366Z,3.35
2023-04-15T10:33:20.570Z,3.70
2023-04-15T10:34:54.347Z,3.10
2023-04-15T10:36:26.370Z,3.10
2023-04-15T10:37:58.085Z,3.33
2023-04-15T10:39:41.595Z,3.20
2023-04-15T10:41:19.531Z,3.08
2023-04-15T10:42:52.789Z,3.25
2023-04-15T10:44:24.460Z,3.00
2023-04-15T10:45:56.251Z,3.58
2023-04-15T10:47:28.547Z,3.55
2023-04-15T10:49:00.457Z,3.47
2023-04-15T10:50:32.678Z,3.28
2023-04-15T10:52:04.426Z,3.25
2023-04-15T10:53:37.930Z,3.53
2023-04-15T10:55:17.871Z,4.53
2023-04-15T10:56:51.622Z,3.65
2023-04-15T10:58:24.139Z,3.10
2023-04-15T11:00:13.012Z,3.10
2023-04-15T11:01:51.873Z,3.47
2023-04-15T11:03:36.835Z,3.50
2023-04-15T11:05:08.658Z,4.20
2023-04-15T11:06:43.970Z,3.30
2023-04-15T11:08:16.347Z,2.95
2023-04-15T11:09:47.952Z,3.20
2023-04-15T11:11:21.548Z,3.40
2023-04-15T11:12:53.894Z,3.45
2023-04-15T11:14:25.783Z,5.22
2023-04-15T11:15:58.893Z,3.80
2023-04-15T11:17:31.034Z,3.88
2023-04-15T11:19:03.584Z,3.20
2023-04-15T11:20:35.380Z,3.40
2023-04-15T11:22:08.338Z,3.25
2023-04-15T11:23:41.421Z,3.60
2023-04-15T11:25:23.234Z,3.60
2023-04-15T11:26:59.874Z,3.53
2023-04-15T11:28:31.892Z,3.10
2023-04-15T11:30:17.416Z,3.47
2023-04-15T11:31:49.799Z,3.50
2023-04-15T11:33:22.322Z,3.20
2023-04-15T11:34:53.960Z,3.63
2023-04-15T11:36:27.266Z,3.40
2023-04-15T11:37:58.961Z,3.30
2023-04-15T11:39:30.647Z,3.40
2023-04-15T11:41:02.341Z,3.35
2023-04-15T11:42:46.719Z,3.10
2023-04-15T11:44:21.138Z,3.45
2023-04-15T11:45:54.580Z,3.40
2023-04-15T11:47:26.328Z,3.30
2023-04-15T11:48:58.162Z,3.25
2023-04-15T11:50:29.789Z,3.10
2023-04-15T11:52:01.413Z,3.33
2023-04-15T11:53:40.875Z,3.60
2023-04-15T11:55:12.494Z,2.88
2023-04-15T11:56:44.160Z,3.25
2023-04-15T11:58:18.348Z,3.10
2023-04-15T11:59:55.063Z,2.90
2023-04-15T12:01:33.234Z,3.20
2023-04-15T12:03:24.477Z,3.13
2023-04-15T12:05:03.971Z,3.30
2023-04-15T12:06:36.870Z,3.05
2023-04-15T12:08:08.644Z,3.15
2023-04-15T12:09:40.801Z,3.10
2023-04-15T12:11:12.466Z,2.88
2023-04-15T12:12:44.082Z,2.90
2023-04-15T12:14:25.020Z,2.58
2023-04-15T12:15:56.774Z,2.70
2023-04-15T12:17:31.449Z,2.80
2023-04-15T12:19:24.412Z,2.80
2023-04-15T12:20:56.094Z,2.90
2023-04-15T12:22:27.725Z,2.90
2023-04-15T12:24:02.367Z,2.92
2023-04-15T12:25:35.372Z,3.20
2023-04-15T12:27:07.892Z,3.28
2023-04-15T12:28:40.661Z,3.20
2023-04-15T12:30:14.135Z,2.90
2023-04-15T12:31:50.648Z,2.90
2023-04-15T12:33:22.603Z,3.10
2023-04-15T12:34:57.031Z,2.97
2023-04-15T12:36:28.928Z,2.95
2023-04-15T12:38:00.723Z,2.85
2023-04-15T12:39:34.910Z,2.90
2023-04-15T12:41:06.510Z,2.80
2023-04-15T12:42:38.181Z,2.90
2023-04-15T12:44:10.086Z,2.85
2023-04-15T12:45:43.044Z,2.65
2023-04-15T12:47:14.790Z,2.50
2023-04-15T12:48:46.600Z,2.78
2023-04-15T12:50:18.486Z,2.65
2023-04-15T12:51:50.698Z,2.60
2023-04-15T12:53:22.371Z,2.65
2023-04-15T12:54:53.967Z,2.42
2023-04-15T12:56:25.679Z,2.80
2023-04-15T12:57:57.453Z,2.33
2023-04-15T12:59:29.226Z,2.45
2023-04-15T13:01:02.291Z,2.40
2023-04-15T13:02:34.352Z,2.50
2023-04-15T13:04:06.452Z,2.80
2023-04-15T13:05:39.739Z,2.80
2023-04-15T13:07:13.547Z,2.60
2023-04-15T13:08:57.462Z,2.78
2023-04-15T13:10:29.775Z,2.47
2023-04-15T13:12:01.415Z,2.47
2023-04-15T13:13:33.125Z,2.38
2023-04-15T13:15:05.809Z,2.55
2023-04-15T13:16:39.146Z,2.50
2023-04-15T13:18:13.358Z,2.30
2023-04-15T13:19:44.968Z,2.60
2023-04-15T13:21:16.907Z,2.85
2023-04-15T13:22:49.052Z,2.60
2023-04-15T13:24:20.917Z,2.63
2023-04-15T13:25:53.015Z,2.10
2023-04-15T13:27:24.693Z,2.00
2023-04-15T13:28:56.765Z,2.00
2023-04-15T13:30:28.465Z,2.10
2023-04-15T13:32:01.683Z,2.00
2023-04-15T13:33:33.406Z,2.03
2023-04-15T13:35:05.800Z,2.00
2023-04-15T13:36:37.499Z,1.77
2023-04-15T13:38:09.162Z,2.25
2023-04-15T13:39:43.017Z,2.10
2023-04-15T13:41:14.611Z,2.10
2023-04-15T13:42:47.129Z,1.90
2023-04-15T13:44:19.911Z,2.00
2023-04-15T13:45:53.262Z,1.92
2023-04-15T13:47:26.376Z,1.77
2023-04-15T13:48:58.173Z,2.00
2023-04-15T13:50:29.893Z,1.90
2023-04-15T13:52:03.911Z,2.00
2023-04-15T13:53:39.171Z,1.85
2023-04-15T13:55:19.287Z,2.10
2023-04-15T13:56:52.384Z,1.83
2023-04-15T13:58:24.021Z,2.03
2023-04-15T13:59:55.667Z,1.98
2023-04-15T14:01:27.530Z,2.05
2023-04-15T14:03:00.877Z,1.85
2023-04-15T14:04:32.833Z,1.90
2023-04-15T14:06:04.853Z,2.10
2023-04-15T14:07:36.623Z,1.88
2023-04-15T14:09:08.276Z,1.85
2023-04-15T14:10:41.805Z,1.85
2023-04-15T14:12:13.445Z,1.73
2023-04-15T14:13:45.203Z,1.70
2023-04-15T14:15:16.983Z,1.70
2023-04-15T14:16:48.837Z,1.70
2023-04-15T14:18:22.200Z,1.80
2023-04-15T14:19:53.846Z,1.75
2023-04-15T14:21:26.397Z,1.77
2023-04-15T14:22:58.033Z,1.83
2023-04-15T14:24:29.657Z,1.90
2023-04-15T14:26:01.316Z,1.77
2023-04-15T14:27:32.927Z,1.90
2023-04-15T14:29:04.735Z,1.70
2023-04-15T14:30:36.510Z,1.98
2023-04-15T14:32:11.995Z,1.90
2023-04-15T14:33:46.338Z,1.90
2023-04-15T14:35:18.054Z,1.98
2023-04-15T14:36:49.887Z,1.90
2023-04-15T14:38:22.769Z,2.10
2023-04-15T14:39:54.464Z,2.15
2023-04-15T14:41:26.237Z,2.03
2023-04-15T14:43:00.997Z,1.90
2023-04-15T14:44:32.738Z,2.00
2023-04-15T14:46:04.553Z,1.80
2023-04-15T14:47:36.305Z,2.10
2023-04-15T14:49:09.579Z,2.17
2023-04-15T14:50:41.273Z,1.92
2023-04-15T14:52:13.058Z,2.30
2023-04-15T14:53:45.027Z,2.03
2023-04-15T14:55:16.961Z,1.90
2023-04-15T14:57:00.328Z,2.20
2023-04-15T14:58:36.283Z,2.10
2023-04-15T15:00:08.842Z,2.08
2023-04-15T15:01:43.797Z,2.00
2023-04-15T15:03:15.824Z,1.83
2023-04-15T15:04:49.089Z,1.90
2023-04-15T15:06:20.878Z,1.70
2023-04-15T15:07:52.527Z,1.80
2023-04-15T15:09:25.072Z,2.10
2023-04-15T15:10:56.746Z,2.17
2023-04-15T15:12:28.497Z,2.30
2023-04-15T15:14:00.193Z,2.20
2023-04-15T15:15:31.806Z,2.90
2023-04-15T15:17:03.428Z,3.78
2023-04-15T15:18:35.775Z,5.72
2023-04-15T15:20:09.768Z,4.70
2023-04-15T15:21:41.395Z,6.05
2023-04-15T15:23:13.049Z,3.00
2023-04-15T15:24:46.804Z,2.30
2023-04-15T15:26:19.335Z,2.40
2023-04-15T15:27:51.091Z,2.00
2023-04-15T15:29:25.319Z,2.00
2023-04-15T15:30:57.025Z,2.40
2023-04-15T15:32:28.798Z,2.15
2023-04-15T15:34:00.630Z,2.17
2023-04-15T15:35:33.613Z,2.22
2023-04-15T15:37:05.290Z,2.10
2023-04-15T15:38:36.957Z,2.30
2023-04-15T15:40:09.366Z,2.30
2023-04-15T15:41:41.045Z,2.35
2023-04-15T15:43:12.672Z,2.45
2023-04-15T15:44:44.274Z,2.22
2023-04-15T15:46:15.904Z,2.55
2023-04-15T15:47:47.599Z,2.30
2023-04-15T15:49:19.805Z,2.60
2023-04-15T15:50:53.581Z,2.58
2023-04-15T15:52:25.410Z,2.60
2023-04-15T15:53:57.052Z,2.67
2023-04-15T15:55:28.852Z,2.78
2023-04-15T15:57:00.481Z,2.90
2023-04-15T15:58:32.093Z,2.75
2023-04-15T16:00:12.069Z,3.10
2023-04-15T16:01:46.755Z,2.78
2023-04-15T16:03:18.641Z,3.00
2023-04-15T16:04:52.451Z,2.90
2023-04-15T16:06:26.579Z,2.70
2023-04-15T16:07:58.175Z,2.80
2023-04-15T16:09:29.892Z,2.90
2023-04-15T16:11:01.514Z,2.80
2023-04-15T16:12:34.949Z,2.60
2023-04-15T16:14:06.759Z,2.72
2023-04-15T16:15:38.512Z,3.10
2023-04-15T16:17:10.290Z,2.85
2023-04-15T16:18:41.907Z,2.60
2023-04-15T16:20:15.165Z,2.45
2023-04-15T16:21:48.150Z,2.83
2023-04-15T16:23:19.847Z,2.40
2023-04-15T16:24:51.505Z,2.63
2023-04-15T16:26:23.168Z,5.07
2023-04-15T16:28:05.536Z,6.40
2023-04-15T16:29:43.289Z,6.38
2023-04-15T16:31:14.874Z,6.55
2023-04-15T16:32:47.217Z,4.90
2023-04-15T16:34:19.920Z,5.55
2023-04-15T16:35:52.819Z,6.40
2023-04-15T16:37:26.140Z,4.57
2023-04-15T16:38:57.819Z,4.15
2023-04-15T16:40:29.472Z,9.93
2023-04-15T16:42:02.431Z,4.03
2023-04-15T16:43:34.151Z,3.00
2023-04-15T16:45:06.793Z,5.60
2023-04-15T16:46:40.769Z,2.85
2023-04-15T16:48:12.775Z,2.97
2023-04-15T16:49:44.574Z,2.60
2023-04-15T16:51:16.504Z,2.72
2023-04-15T16:52:49.544Z,4.90
2023-04-15T16:54:21.179Z,5.25
2023-04-15T16:55:52.792Z,6.80
2023-04-15T16:57:32.661Z,8.10
2023-04-15T16:59:18.537Z,8.35
2023-04-15T17:00:50.733Z,9.52
2023-04-15T17:02:22.819Z,8.80
2023-04-15T17:03:56.134Z,7.63
2023-04-15T17:05:28.194Z,7.38
2023-04-15T17:06:59.819Z,2.97
2023-04-15T17:08:33.028Z,4.32
2023-04-15T17:10:05.531Z,5.43
2023-04-15T17:11:40.364Z,2.20
2023-04-15T17:13:12.102Z,4.30
2023-04-15T17:14:43.869Z,4.95
2023-04-15T17:16:15.751Z,3.45
2023-04-15T17:17:47.715Z,3.20
2023-04-15T17:19:19.369Z,3.50
2023-04-15T17:20:51.061Z,3.00
2023-04-15T17:22:22.875Z,3.72
2023-04-15T17:23:56.148Z,3.05
2023-04-15T17:25:28.969Z,2.40
2023-04-15T17:27:03.625Z,2.65
2023-04-15T17:28:36.138Z,2.85
2023-04-15T17:30:11.741Z,3.17
2023-04-15T17:31:43.425Z,3.30
2023-04-15T17:33:56.006Z,3.15
2023-04-15T17:35:07.868Z,3.13
2023-04-15T17:36:42.542Z,3.38
2023-04-15T17:38:16.328Z,3.38
2023-04-15T17:39:49.314Z,3.20
2023-04-15T17:41:21.196Z,2.97
2023-04-15T17:42:53.002Z,3.72
2023-04-15T17:44:25.338Z,3.83
2023-04-15T17:45:59.186Z,3.60
2023-04-15T17:47:31.101Z,3.40
2023-04-15T17:49:03.339Z,3.17
2023-04-15T17:50:35.514Z,3.40
2023-04-15T17:52:07.184Z,3.10
2023-04-15T17:53:38.857Z,3.20
2023-04-15T17:55:12.008Z,3.03
2023-04-15T17:56:43.766Z,2.90
2023-04-15T17:58:15.576Z,2.90
2023-04-15T17:59:47.884Z,2.75
2023-04-15T18:01:19.614Z,2.80
2023-04-15T18:02:51.553Z,2.78
2023-04-15T18:04:26.424Z,2.75
2023-04-15T18:06:00.648Z,2.80
2023-04-15T18:07:32.334Z,2.70
2023-04-15T18:09:04.552Z,2.83
2023-04-15T18:10:38.255Z,2.85
2023-04-15T18:12:10.164Z,2.60
2023-04-15T18:13:43.632Z,2.50
2023-04-15T18:15:15.785Z,3.08
2023-04-15T18:16:49.042Z,3.50
2023-04-15T18:18:20.749Z,2.90
2023-04-15T18:19:52.493Z,2.70
2023-04-15T18:21:24.338Z,3.65
2023-04-15T18:22:55.989Z,2.95
2023-04-15T18:24:29.109Z,3.00
2023-04-15T18:26:04.629Z,3.00
2023-04-15T18:27:38.984Z,2.60
2023-04-15T18:29:10.816Z,4.47
2023-04-15T18:30:42.553Z,6.60
2023-04-15T18:32:14.314Z,5.75
2023-04-15T18:33:45.972Z,4.80
2023-04-15T18:35:17.810Z,5.90
2023-04-15T18:36:49.626Z,7.57
2023-04-15T18:38:21.407Z,11.93
2023-04-15T18:39:54.106Z,7.57
2023-04-15T18:41:27.147Z,4.82
2023-04-15T18:42:58.778Z,7.90
2023-04-15T18:44:30.492Z,15.75
2023-04-15T18:46:03.819Z,10.05
2023-04-15T18:47:35.627Z,5.32
2023-04-15T18:49:12.440Z,14.18
2023-04-15T18:50:44.202Z,6.20
2023-04-15T18:52:16.160Z,7.15
2023-04-15T18:53:47.917Z,7.30
2023-04-15T18:55:20.909Z,9.10
2023-04-15T18:56:54.379Z,4.53
2023-04-15T18:58:27.203Z,6.70
2023-04-15T18:59:58.942Z,5.07
2023-04-15T19:01:33.664Z,3.63
2023-04-15T19:03:05.476Z,2.83
2023-04-15T19:04:37.386Z,2.70
2023-04-15T19:06:09.327Z,2.47
2023-04-15T19:07:41.366Z,2.80
2023-04-15T19:09:13.276Z,2.33
2023-04-15T19:10:44.947Z,2.28
2023-04-15T19:12:17.991Z,2.50
2023-04-15T19:13:49.776Z,2.50
2023-04-15T19:15:21.826Z,2.00
2023-04-15T19:16:53.564Z,2.10
2023-04-15T19:18:26.197Z,2.38
2023-04-15T19:19:58.031Z,2.10
2023-04-15T19:21:30.600Z,3.83
2023-04-15T19:23:02.715Z,3.33
2023-04-15T19:24:36.620Z,3.67
2023-04-15T19:26:08.492Z,3.92
2023-04-15T19:27:41.671Z,3.00
2023-04-15T19:29:13.748Z,4.00
2023-04-15T19:30:45.587Z,3.55
2023-04-15T19:32:17.604Z,4.07
2023-04-15T19:33:49.397Z,4.90
2023-04-15T19:35:21.273Z,3.80
2023-04-15T19:36:52.983Z,2.95
2023-04-15T19:38:24.661Z,2.95
2023-04-15T19:39:56.496Z,2.90
2023-04-15T19:41:28.281Z,2.85
2023-04-15T19:43:03.632Z,2.90
2023-04-15T19:44:35.815Z,2.83
2023-04-15T19:46:07.811Z,2.95
2023-04-15T19:47:39.760Z,2.60
2023-04-15T19:49:11.542Z,2.40
2023-04-15T19:50:43.191Z,2.53
2023-04-15T19:52:14.893Z,2.80
2023-04-15T19:53:46.801Z,2.38
2023-04-15T19:55:18.752Z,2.53
2023-04-15T19:56:50.576Z,2.17
2023-04-15T19:58:23.678Z,2.28
2023-04-15T19:59:55.403Z,2.40
2023-04-15T20:01:27.242Z,2.40
2023-04-15T20:02:59.221Z,2.45
2023-04-15T20:04:31.394Z,2.60
2023-04-15T20:06:03.454Z,2.20
2023-04-15T20:07:35.307Z,2.20
2023-04-15T20:09:11.269Z,2.55
2023-04-15T20:10:43.230Z,2.75
2023-04-15T20:12:50.466Z,2.65
2023-04-15T20:14:07.964Z,2.70
2023-04-15T20:15:39.596Z,2.55
2023-04-15T20:17:11.267Z,3.08
2023-04-15T20:18:42.893Z,2.70
2023-04-15T20:20:14.526Z,2.78
2023-04-15T20:21:46.482Z,2.70
2023-04-15T20:23:20.389Z,2.60
2023-04-15T20:24:52.061Z,2.72
2023-04-15T20:26:24.874Z,3.03
2023-04-15T20:28:00.423Z,3.30
2023-04-15T20:29:34.008Z,3.55
2023-04-15T20:31:05.707Z,3.13
2023-04-15T20:32:38.620Z,3.17
2023-04-15T20:34:12.135Z,2.90